createdAt,value
2023-02-14T00:01:42.778Z,3.60
2023-02-14T00:04:11.109Z,3.13
2023-02-14T00:06:40.045Z,3.80
2023-02-14T00:09:09.670Z,3.70
2023-02-14T00:11:37.955Z,3.00
2023-02-14T00:14:24.341Z,3.50
2023-02-14T00:16:54.667Z,3.78
2023-02-14T00:19:23.662Z,4.10
2023-02-14T00:21:52.266Z,3.50
2023-02-14T00:24:22.159Z,4.03
2023-02-14T00:26:51.306Z,4.45
2023-02-14T00:29:21.620Z,4.20
2023-02-14T00:31:49.884Z,4.68
2023-02-14T00:34:20.332Z,6.05
2023-02-14T00:36:49.312Z,4.75
2023-02-14T00:39:18.196Z,4.78
2023-02-14T00:41:46.691Z,5.57
2023-02-14T00:44:15.546Z,4.97
2023-02-14T00:46:43.744Z,5.70
2023-02-14T00:49:12.190Z,4.90
2023-02-14T00:51:42.015Z,5.30
2023-02-14T00:54:10.316Z,5.53
2023-02-14T00:56:38.499Z,6.25
2023-02-14T00:59:06.847Z,5.97
2023-02-14T01:01:35.074Z,6.03
2023-02-14T01:04:03.439Z,5.53
2023-02-14T01:06:31.816Z,5.07
2023-02-14T01:09:01.775Z,6.00
2023-02-14T01:11:30.371Z,5.40
2023-02-14T01:13:59.979Z,5.65
2023-02-14T01:16:29.183Z,4.97
2023-02-14T01:18:57.828Z,5.50
2023-02-14T01:21:27.941Z,6.07
2023-02-14T01:23:58.829Z,5.28
2023-02-14T01:26:29.486Z,6.15
2023-02-14T01:28:57.916Z,5.45
2023-02-14T01:31:27.654Z,6.55
2023-02-14T01:33:56.480Z,6.22
2023-02-14T01:36:26.190Z,5.80
2023-02-14T01:38:56.490Z,5.95
2023-02-14T01:41:25.924Z,6.32
2023-02-14T01:43:59.032Z,7.18
2023-02-14T01:46:29.502Z,5.20
2023-02-14T01:49:02.453Z,7.32
2023-02-14T01:51:31.862Z,7.47
2023-02-14T01:54:01.262Z,6.07
2023-02-14T01:56:35.842Z,6.18
2023-02-14T01:59:08.754Z,7.05
2023-02-14T02:01:37.148Z,7.00
2023-02-14T02:04:11.199Z,8.05
2023-02-14T02:06:42.420Z,6.95
2023-02-14T02:09:17.728Z,6.25
2023-02-14T02:11:46.386Z,7.53
2023-02-14T02:14:20.313Z,7.70
2023-02-14T02:17:12.733Z,7.78
2023-02-14T02:20:15.258Z,7.57
2023-02-14T02:23:18.956Z,6.78
2023-02-14T02:26:22.491Z,7.57
2023-02-14T02:29:24.150Z,7.28
2023-02-14T02:32:19.601Z,7.63
2023-02-14T02:35:26.609Z,7.10
2023-02-14T02:38:10.785Z,7.78
2023-02-14T02:40:49.418Z,7.72
2023-02-14T02:43:28.883Z,6.85
2023-02-14T02:46:20.822Z,6.97
2023-02-14T02:48:58.460Z,6.63
2023-02-14T02:51:54.007Z,8.32
2023-02-14T02:54:30.589Z,8.20
2023-02-14T02:57:01.490Z,7.25
2023-02-14T02:59:32.443Z,8.07
2023-02-14T03:02:07.295Z,6.70
2023-02-14T03:04:56.125Z,7.40
2023-02-14T03:07:39.555Z,6.15
2023-02-14T03:10:12.584Z,7.97
2023-02-14T03:13:08.044Z,6.68
2023-02-14T03:15:55.370Z,8.05
2023-02-14T03:18:58.094Z,7.65
2023-02-14T03:21:32.124Z,6.53
2023-02-14T03:24:10.860Z,7.40
2023-02-14T03:26:47.403Z,7.78
2023-02-14T03:29:21.547Z,7.90
2023-02-14T03:31:59.505Z,7.47
2023-02-14T03:34:33.349Z,7.57
2023-02-14T03:37:09.907Z,8.13
2023-02-14T03:39:47.159Z,7.28
2023-02-14T03:42:22.685Z,8.23
2023-02-14T03:44:53.938Z,8.82
2023-02-14T03:47:24.656Z,9.52
2023-02-14T03:49:56.581Z,9.13
2023-02-14T03:52:27.644Z,8.85
2023-02-14T03:54:59.486Z,9.15
2023-02-14T03:57:31.058Z,10.10
2023-02-14T03:59:59.421Z,10.35
2023-02-14T04:02:33.508Z,9.57
2023-02-14T04:05:05.366Z,10.55
2023-02-14T04:07:44.441Z,9.93
2023-02-14T04:10:14.417Z,9.68
2023-02-14T04:12:42.649Z,10.50
2023-02-14T04:15:11.490Z,10.27
2023-02-14T04:17:57.416Z,10.05
2023-02-14T04:20:26.195Z,9.75
2023-02-14T04:22:54.537Z,9.57
2023-02-14T04:25:24.525Z,9.82
2023-02-14T04:27:52.836Z,9.18
2023-02-14T04:30:22.973Z,10.50
2023-02-14T04:32:51.639Z,9.65
2023-02-14T04:35:19.989Z,10.50
2023-02-14T04:37:48.342Z,9.70
2023-02-14T04:40:18.059Z,9.80
2023-02-14T04:42:48.347Z,9.57
2023-02-14T04:45:16.666Z,10.73
2023-02-14T04:47:45.048Z,10.60
2023-02-14T04:50:13.314Z,9.80
2023-02-14T04:52:42.162Z,10.02
2023-02-14T04:55:11.479Z,9.07
2023-02-14T04:57:39.744Z,9.25
2023-02-14T05:00:10.627Z,9.93
2023-02-14T05:02:38.854Z,8.43
2023-02-14T05:05:07.879Z,9.60
2023-02-14T05:07:36.241Z,10.05
2023-02-14T05:10:04.650Z,7.88
2023-02-14T05:12:33.220Z,7.93
2023-02-14T05:15:01.484Z,7.25
2023-02-14T05:17:31.246Z,8.77
2023-02-14T05:19:59.383Z,8.05
2023-02-14T05:22:27.587Z,9.15
2023-02-14T05:24:55.861Z,7.43
2023-02-14T05:27:24.114Z,6.95
2023-02-14T05:29:52.235Z,7.15
2023-02-14T05:32:20.460Z,7.32
2023-02-14T05:34:50.106Z,6.40
2023-02-14T05:37:18.351Z,6.93
2023-02-14T05:39:46.568Z,6.45
2023-02-14T05:42:14.781Z,7.20
2023-02-14T05:44:43.045Z,7.57
2023-02-14T05:47:13.097Z,6.65
2023-02-14T05:49:41.616Z,8.27
2023-02-14T05:52:11.682Z,6.88
2023-02-14T05:54:39.877Z,5.78
2023-02-14T05:57:08.063Z,5.68
2023-02-14T05:59:36.275Z,7.70
2023-02-14T06:02:04.515Z,7.10
2023-02-14T06:04:32.878Z,5.88
2023-02-14T06:07:01.487Z,7.47
2023-02-14T06:09:31.219Z,7.72
2023-02-14T06:11:59.855Z,7.93
2023-02-14T06:14:28.121Z,6.82
2023-02-14T06:16:56.475Z,7.60
2023-02-14T06:19:24.719Z,7.10
2023-02-14T06:21:53.087Z,6.45
2023-02-14T06:24:21.411Z,5.95
2023-02-14T06:26:51.156Z,6.47
2023-02-14T06:29:19.893Z,6.78
2023-02-14T06:31:48.541Z,6.53
2023-02-14T06:34:16.838Z,7.57
2023-02-14T06:36:45.251Z,7.22
2023-02-14T06:39:13.415Z,7.10
2023-02-14T06:41:41.780Z,6.05
2023-02-14T06:44:11.490Z,7.25
2023-02-14T06:46:39.868Z,8.73
2023-02-14T06:49:08.164Z,7.07
2023-02-14T06:51:36.333Z,7.90
2023-02-14T06:54:04.627Z,6.82
2023-02-14T06:56:32.977Z,6.65
2023-02-14T06:59:01.223Z,6.90
2023-02-14T07:01:30.973Z,7.70
2023-02-14T07:03:59.166Z,6.50
2023-02-14T07:06:27.703Z,7.63
2023-02-14T07:08:55.925Z,6.65
2023-02-14T07:11:24.201Z,7.20
2023-02-14T07:13:52.341Z,6.53
2023-02-14T07:16:20.683Z,5.60
2023-02-14T07:18:50.477Z,6.85
2023-02-14T07:21:18.728Z,6.45
2023-02-14T07:23:50.036Z,6.28
2023-02-14T07:26:18.405Z,6.65
2023-02-14T07:28:46.730Z,6.93
2023-02-14T07:31:14.980Z,6.63
2023-02-14T07:33:43.395Z,7.22
2023-02-14T07:36:13.127Z,8.52
2023-02-14T07:38:41.334Z,7.75
2023-02-14T07:41:09.564Z,6.63
2023-02-14T07:43:38.908Z,8.68
2023-02-14T07:46:08.667Z,7.63
2023-02-14T07:48:36.869Z,7.60
2023-02-14T07:51:05.190Z,8.20
2023-02-14T07:53:35.097Z,7.65
2023-02-14T07:56:03.297Z,9.80
2023-02-14T07:58:31.575Z,7.82
2023-02-14T08:01:00.114Z,8.48
2023-02-14T08:03:28.530Z,7.43
2023-02-14T08:05:58.308Z,8.32
2023-02-14T08:08:28.141Z,6.80
2023-02-14T08:10:58.852Z,7.80
2023-02-14T08:13:27.936Z,8.70
2023-02-14T08:16:09.737Z,8.73
2023-02-14T08:18:40.224Z,7.90
2023-02-14T08:21:10.784Z,8.85
2023-02-14T08:23:39.787Z,8.25
2023-02-14T08:26:09.629Z,9.38
2023-02-14T08:28:37.898Z,9.13
2023-02-14T08:31:06.374Z,8.95
2023-02-14T08:33:34.671Z,9.25
2023-02-14T08:36:03.148Z,10.65
2023-02-14T08:38:31.724Z,9.18
2023-02-14T08:41:05.867Z,9.93
2023-02-14T08:43:37.446Z,9.50
2023-02-14T08:46:05.892Z,10.27
2023-02-14T08:48:37.442Z,9.45
2023-02-14T08:51:08.454Z,8.93
2023-02-14T08:53:37.050Z,9.50
2023-02-14T08:56:06.063Z,10.75
2023-02-14T08:58:35.844Z,8.55
2023-02-14T09:01:09.789Z,10.40
2023-02-14T09:03:38.700Z,9.38
2023-02-14T09:06:09.051Z,9.38
2023-02-14T09:08:39.852Z,9.18
2023-02-14T09:11:09.355Z,9.75
2023-02-14T09:13:38.025Z,9.80
2023-02-14T09:16:09.477Z,8.88
2023-02-14T09:18:38.258Z,8.63
2023-02-14T09:21:10.345Z,7.95
2023-02-14T09:23:38.899Z,9.35
2023-02-14T09:26:08.643Z,9.20
2023-02-14T09:28:37.263Z,8.45
2023-02-14T09:31:13.093Z,8.55
2023-02-14T09:33:42.021Z,8.88
2023-02-14T09:36:27.973Z,9.93
2023-02-14T09:38:56.286Z,8.68
2023-02-14T09:41:49.393Z,9.43
2023-02-14T09:44:25.833Z,9.13
2023-02-14T09:46:58.769Z,9.10
2023-02-14T09:49:33.926Z,10.07
2023-02-14T09:52:05.196Z,9.05
2023-02-14T09:54:35.867Z,9.55
2023-02-14T09:57:10.139Z,10.32
2023-02-14T09:59:44.706Z,8.65
2023-02-14T10:02:37.634Z,8.77
2023-02-14T10:05:13.332Z,10.00
2023-02-14T10:07:58.191Z,8.80
2023-02-14T10:10:32.811Z,8.32
2023-02-14T10:13:06.885Z,9.45
2023-02-14T10:15:39.543Z,9.93
2023-02-14T10:18:13.979Z,11.10
2023-02-14T10:20:46.091Z,9.02
2023-02-14T10:23:31.569Z,9.10
2023-02-14T10:26:03.051Z,9.85
2023-02-14T10:28:36.730Z,9.32
2023-02-14T10:31:20.818Z,8.82
2023-02-14T10:33:57.485Z,10.57
2023-02-14T10:36:43.471Z,9.32
2023-02-14T10:39:26.562Z,8.77
2023-02-14T10:41:59.749Z,10.07
2023-02-14T10:44:40.887Z,9.60
2023-02-14T10:47:21.368Z,10.20
2023-02-14T10:49:57.450Z,9.52
2023-02-14T10:52:31.184Z,9.48
2023-02-14T10:55:01.541Z,10.10
2023-02-14T10:57:33.452Z,9.55
2023-02-14T11:00:03.488Z,11.05
2023-02-14T11:02:35.997Z,10.10
2023-02-14T11:05:06.326Z,11.50
2023-02-14T11:07:34.977Z,10.85
2023-02-14T11:10:03.348Z,10.05
2023-02-14T11:12:38.066Z,10.07
2023-02-14T11:15:21.490Z,10.95
2023-02-14T11:17:49.865Z,9.75
2023-02-14T11:20:30.385Z,11.63
2023-02-14T11:22:58.847Z,10.32
2023-02-14T11:25:29.368Z,9.55
2023-02-14T11:28:02.221Z,9.73
2023-02-14T11:30:41.120Z,10.13
2023-02-14T11:33:13.980Z,9.98
2023-02-14T11:35:51.992Z,9.70
2023-02-14T11:38:30.561Z,10.13
2023-02-14T11:41:00.408Z,11.35
2023-02-14T11:43:34.353Z,10.45
2023-02-14T11:46:14.752Z,10.80
2023-02-14T11:48:57.835Z,10.77
2023-02-14T11:51:36.904Z,10.77
2023-02-14T11:54:06.917Z,9.88
2023-02-14T11:56:49.105Z,9.77
2023-02-14T11:59:31.385Z,9.13
2023-02-14T12:02:02.817Z,9.68
2023-02-14T12:04:46.176Z,9.85
2023-02-14T12:07:22.823Z,11.52
2023-02-14T12:10:23.905Z,9.27
2023-02-14T12:12:54.749Z,10.05
2023-02-14T12:15:36.885Z,11.75
2023-02-14T12:18:39.454Z,10.18
2023-02-14T12:21:37.888Z,12.00
2023-02-14T12:24:16.914Z,9.82
2023-02-14T12:26:49.397Z,10.43
2023-02-14T12:29:26.269Z,10.70
2023-02-14T12:31:56.082Z,9.52
2023-02-14T12:34:24.267Z,9.98
2023-02-14T12:37:19.468Z,10.00
2023-02-14T12:40:22.981Z,10.60
2023-02-14T12:43:22.310Z,10.32
2023-02-14T12:46:06.082Z,10.57
2023-02-14T12:48:48.524Z,10.73
2023-02-14T12:51:25.132Z,11.20
2023-02-14T12:54:07.793Z,11.13
2023-02-14T12:56:46.270Z,9.57
2023-02-14T12:59:26.106Z,10.48
2023-02-14T13:02:33.262Z,9.23
2023-02-14T13:05:07.405Z,10.50
2023-02-14T13:07:49.929Z,10.00
2023-02-14T13:10:30.147Z,10.27
2023-02-14T13:13:07.626Z,10.77
2023-02-14T13:15:45.591Z,11.23
2023-02-14T13:18:25.887Z,10.13
2023-02-14T13:20:57.315Z,11.30
2023-02-14T13:23:30.521Z,10.43
2023-02-14T13:26:05.105Z,10.38
2023-02-14T13:28:37.572Z,10.90
2023-02-14T13:31:06.417Z,10.68
2023-02-14T13:33:39.261Z,10.02
2023-02-14T13:36:10.550Z,9.52
2023-02-14T13:38:44.807Z,9.35
2023-02-14T13:41:14.358Z,10.45
2023-02-14T13:43:55.012Z,10.27
2023-02-14T13:46:38.963Z,10.95
2023-02-14T13:49:31.804Z,9.98
2023-02-14T13:52:03.792Z,10.05
2023-02-14T13:54:46.135Z,10.05
2023-02-14T13:57:34.091Z,10.68
2023-02-14T14:00:41.281Z,10.38
2023-02-14T14:03:15.018Z,10.43
2023-02-14T14:05:59.862Z,12.15
2023-02-14T14:08:46.873Z,10.43
2023-02-14T14:11:58.588Z,10.48
2023-02-14T14:14:39.800Z,10.48
2023-02-14T14:17:29.359Z,10.40
2023-02-14T14:19:58.182Z,10.48
2023-02-14T14:22:27.022Z,10.70
2023-02-14T14:25:05.229Z,10.10
2023-02-14T14:27:36.576Z,9.95
2023-02-14T14:30:07.668Z,10.20
2023-02-14T14:32:39.343Z,10.30
2023-02-14T14:35:18.170Z,10.02
2023-02-14T14:37:49.004Z,12.73
2023-02-14T14:40:26.330Z,9.73
2023-02-14T14:42:57.169Z,10.18
2023-02-14T14:45:28.455Z,10.48
2023-02-14T14:48:10.972Z,9.75
2023-02-14T14:50:59.436Z,10.23
2023-02-14T14:53:49.174Z,10.68
2023-02-14T14:56:40.623Z,10.20
2023-02-14T14:59:29.155Z,10.32
2023-02-14T15:01:57.609Z,10.88
2023-02-14T15:04:30.060Z,10.35
2023-02-14T15:07:42.170Z,11.38
2023-02-14T15:10:30.116Z,10.35
2023-02-14T15:13:17.534Z,10.00
2023-02-14T15:15:53.934Z,10.55
2023-02-14T15:18:28.161Z,10.50
2023-02-14T15:20:58.224Z,11.25
2023-02-14T15:23:28.296Z,10.88
2023-02-14T15:25:56.523Z,12.30
2023-02-14T15:28:29.619Z,11.55
2023-02-14T15:31:05.766Z,11.13
2023-02-14T15:33:35.180Z,11.52
2023-02-14T15:36:08.349Z,10.32
2023-02-14T15:38:41.957Z,11.75
2023-02-14T15:41:11.919Z,11.20
2023-02-14T15:43:43.747Z,12.13
2023-02-14T15:46:19.061Z,11.77
2023-02-14T15:48:47.901Z,11.85
2023-02-14T15:51:22.265Z,10.57
2023-02-14T15:53:59.085Z,12.68
2023-02-14T15:56:30.453Z,12.68
2023-02-14T15:59:02.651Z,13.07
2023-02-14T16:01:32.933Z,12.25
2023-02-14T16:04:03.859Z,12.88
2023-02-14T16:06:39.554Z,17.40
2023-02-14T16:09:23.783Z,14.02
2023-02-14T16:11:53.650Z,14.77
2023-02-14T16:14:30.990Z,14.65
2023-02-14T16:17:02.253Z,12.95
2023-02-14T16:19:38.750Z,13.85
2023-02-14T16:22:10.737Z,13.40
2023-02-14T16:24:39.064Z,13.20
2023-02-14T16:27:13.434Z,13.18
2023-02-14T16:29:41.703Z,14.43
2023-02-14T16:32:18.770Z,14.05
2023-02-14T16:34:48.419Z,13.63
2023-02-14T16:37:24.458Z,12.60
2023-02-14T16:39:56.695Z,12.18
2023-02-14T16:42:25.244Z,12.65
2023-02-14T16:44:53.857Z,13.13
2023-02-14T16:47:22.779Z,13.77
2023-02-14T16:49:53.151Z,13.02
2023-02-14T16:52:26.713Z,12.80
2023-02-14T16:54:55.378Z,12.93
2023-02-14T16:57:28.041Z,13.48
2023-02-14T16:59:57.575Z,13.23
2023-02-14T17:02:28.483Z,13.52
2023-02-14T17:04:57.156Z,13.70
2023-02-14T17:07:28.372Z,14.00
2023-02-14T17:10:02.397Z,13.98
2023-02-14T17:12:34.633Z,14.63
2023-02-14T17:15:07.145Z,14.40
2023-02-14T17:17:36.773Z,14.05
2023-02-14T17:20:08.185Z,15.40
2023-02-14T17:22:38.544Z,14.77
2023-02-14T17:25:07.211Z,14.15
2023-02-14T17:27:35.357Z,14.48
2023-02-14T17:30:03.880Z,16.50
2023-02-14T17:32:32.251Z,14.52
2023-02-14T17:35:03.600Z,15.95
2023-02-14T17:37:32.885Z,15.13
2023-02-14T17:40:02.723Z,14.55
2023-02-14T17:42:33.094Z,14.90
2023-02-14T17:45:01.469Z,14.95
2023-02-14T17:47:30.777Z,15.48
2023-02-14T17:49:58.992Z,14.98
2023-02-14T17:52:29.846Z,14.85
2023-02-14T17:54:58.216Z,15.18
2023-02-14T17:57:28.100Z,13.57
2023-02-14T17:59:56.366Z,13.82
2023-02-14T18:02:24.566Z,14.90
2023-02-14T18:04:52.816Z,14.88
2023-02-14T18:07:21.188Z,16.85
2023-02-14T18:09:49.465Z,13.93
2023-02-14T18:12:18.068Z,15.95
2023-02-14T18:14:47.733Z,15.48
2023-02-14T18:17:15.981Z,15.05
2023-02-14T18:19:46.677Z,17.17
2023-02-14T18:22:14.902Z,15.05
2023-02-14T18:24:43.264Z,15.63
2023-02-14T18:27:11.588Z,14.80
2023-02-14T18:29:39.828Z,15.05
2023-02-14T18:32:09.661Z,15.20
2023-02-14T18:34:38.478Z,14.88
2023-02-14T18:37:07.276Z,16.42
2023-02-14T18:39:35.380Z,16.63
2023-02-14T18:42:04.562Z,15.52
2023-02-14T18:44:33.563Z,14.88
2023-02-14T18:47:02.814Z,14.57
2023-02-14T18:49:33.139Z,15.82
2023-02-14T18:52:02.014Z,16.10
2023-02-14T18:54:30.236Z,16.27
2023-02-14T18:56:58.530Z,15.05
2023-02-14T18:59:26.746Z,14.40
2023-02-14T19:01:55.101Z,14.40
2023-02-14T19:04:23.388Z,13.43
2023-02-14T19:06:53.448Z,13.90
2023-02-14T19:09:21.672Z,14.30
2023-02-14T19:11:50.031Z,13.75
2023-02-14T19:14:19.863Z,15.07
2023-02-14T19:16:51.251Z,13.25
2023-02-14T19:19:19.766Z,14.32
2023-02-14T19:21:48.497Z,14.30
2023-02-14T19:24:19.792Z,12.80
2023-02-14T19:26:48.423Z,15.23
2023-02-14T19:29:18.210Z,12.93
2023-02-14T19:31:48.576Z,12.70
2023-02-14T19:34:20.049Z,13.52
2023-02-14T19:36:49.108Z,15.57
2023-02-14T19:39:19.209Z,16.10
2023-02-14T19:41:48.033Z,15.30
2023-02-14T19:44:17.893Z,15.32
2023-02-14T19:46:47.743Z,14.23
2023-02-14T19:49:17.759Z,15.63
2023-02-14T19:51:47.432Z,14.05
2023-02-14T19:54:15.941Z,14.43
2023-02-14T19:56:47.780Z,14.10
2023-02-14T19:59:20.194Z,14.00
2023-02-14T20:01:50.342Z,15.13
2023-02-14T20:04:20.354Z,16.05
2023-02-14T20:06:49.258Z,14.55
2023-02-14T20:09:18.217Z,14.68
2023-02-14T20:11:50.284Z,14.05
2023-02-14T20:14:20.457Z,14.10
2023-02-14T20:16:49.260Z,16.00
2023-02-14T20:19:20.789Z,14.73
2023-02-14T20:21:50.817Z,14.40
2023-02-14T20:24:20.713Z,15.15
2023-02-14T20:26:51.099Z,14.43
2023-02-14T20:29:20.345Z,15.65
2023-02-14T20:31:50.429Z,14.43
2023-02-14T20:34:19.163Z,13.93
2023-02-14T20:36:52.975Z,14.65
2023-02-14T20:39:23.065Z,13.65
2023-02-14T20:41:54.064Z,14.18
2023-02-14T20:44:22.950Z,13.95
2023-02-14T20:46:52.983Z,15.95
2023-02-14T20:49:22.417Z,15.15
2023-02-14T20:51:51.415Z,13.25
2023-02-14T20:54:20.488Z,14.30
2023-02-14T20:56:50.716Z,14.77
2023-02-14T20:59:26.353Z,14.13
2023-02-14T21:01:54.979Z,14.30
2023-02-14T21:04:23.637Z,14.93
2023-02-14T21:06:52.056Z,12.77
2023-02-14T21:09:20.972Z,13.88
2023-02-14T21:11:50.361Z,13.35
2023-02-14T21:14:21.073Z,13.18
2023-02-14T21:16:49.351Z,13.68
2023-02-14T21:19:17.722Z,13.20
2023-02-14T21:21:46.021Z,15.23
2023-02-14T21:24:16.763Z,14.23
2023-02-14T21:26:45.798Z,13.73
2023-02-14T21:29:14.132Z,12.90
2023-02-14T21:31:43.891Z,14.82
2023-02-14T21:34:12.518Z,14.20
2023-02-14T21:36:40.806Z,14.02
2023-02-14T21:39:09.239Z,13.27
2023-02-14T21:41:38.175Z,14.65
2023-02-14T21:44:07.581Z,13.88
2023-02-14T21:46:39.438Z,15.35
2023-02-14T21:49:26.586Z,15.13
2023-02-14T21:51:54.759Z,12.48
2023-02-14T21:54:22.980Z,13.77
2023-02-14T21:56:51.195Z,13.25
2023-02-14T21:59:19.360Z,11.68
2023-02-14T22:01:47.783Z,14.18
2023-02-14T22:04:17.569Z,12.98
2023-02-14T22:06:45.908Z,14.95
2023-02-14T22:09:17.569Z,12.73
2023-02-14T22:11:47.641Z,15.15
2023-02-14T22:14:16.282Z,13.05
2023-02-14T22:16:44.517Z,14.60
2023-02-14T22:19:16.988Z,13.00
2023-02-14T22:21:45.673Z,13.48
2023-02-14T22:24:13.925Z,13.68
2023-02-14T22:26:42.430Z,15.23
2023-02-14T22:29:12.916Z,15.40
2023-02-14T22:31:43.626Z,13.68
2023-02-14T22:34:13.882Z,13.52
2023-02-14T22:36:43.533Z,13.05
2023-02-14T22:39:14.757Z,14.18
2023-02-14T22:41:43.480Z,15.32
2023-02-14T22:44:13.346Z,13.65
2023-02-14T22:46:41.927Z,14.57
2023-02-14T22:49:10.341Z,13.73
2023-02-14T22:51:40.378Z,14.43
2023-02-14T22:54:13.634Z,13.88
2023-02-14T22:56:44.001Z,13.60
2023-02-14T22:59:16.420Z,15.02
2023-02-14T23:01:45.242Z,13.25
2023-02-14T23:04:14.649Z,14.90
2023-02-14T23:06:42.851Z,15.13
2023-02-14T23:09:14.030Z,14.90
2023-02-14T23:11:44.097Z,13.88
2023-02-14T23:14:31.118Z,12.65
2023-02-14T23:17:16.881Z,12.48
2023-02-14T23:20:03.191Z,15.15
2023-02-14T23:22:33.788Z,12.98
2023-02-14T23:25:06.041Z,11.70
2023-02-14T23:27:36.915Z,13.15
2023-02-14T23:30:06.488Z,13.77
2023-02-14T23:32:34.834Z,12.82
2023-02-14T23:35:03.190Z,12.98
2023-02-14T23:37:31.528Z,12.43
2023-02-14T23:39:59.868Z,14.60
2023-02-14T23:42:29.562Z,14.93
2023-02-14T23:45:18.202Z,12.95
2023-02-14T23:47:46.394Z,13.15
2023-02-14T23:50:14.625Z,14.02
2023-02-14T23:52:44.549Z,13.27
2023-02-14T23:55:13.300Z,14.88
2023-02-14T23:57:43.004Z,14.90
